Athena — ZCNP — position and weather

sailwx.info

Track history (hours):
 
Tides and Currents Weather Stations Pressure Air Temp Water Temp Dewpoint Dewpoint Depression Visibility Wind Speed Wind Dir Waves Ship Positions

Athena

Last reported at 2017-Oct-16 16:30 UTC. Time now 2017-Oct-19 07:06 UTC.
Position N 42°19' W 070°32'.

Length 90 m; draft 5.7 m.

Type: Ship. MMSI: 319012000.

Date/timePositionNaut miles runAvg speedWind from/ knotsBaromVisibWave heightAir tempDewpointWater temp
2017-Oct-16 16:30N 42°19' W 070°32'2 3.3
2017-Oct-16 15:58N 42°18' W 070°31'1 1.5
2017-Oct-16 15:16N 42°18' W 070°33'0 0.4
2017-Oct-16 14:15N 42°17' W 070°33'1010.5
2017-Oct-16 13:21N 42°21' W 070°44'411.3
2017-Oct-16 13:01N 42°23' W 070°49'4 7.0
2017-Oct-16 12:30N 42°22' W 070°54'4 7.5
2017-Oct-16 12:00N 42°20' W 070°58'4 8.1
2017-Oct-16 11:30N 42°22' W 071°03'1 1.0
2017-Oct-16 10:57N 42°22' W 071°03'0 0.0
2017-Oct-16 10:29N 42°22' W 071°03'0 0.0
2017-Oct-16 09:53N 42°22' W 071°03'  
2017-Oct-13 20:02N 42°22' W 071°03'0 0.0
2017-Oct-13 17:07N 42°22' W 071°03'0 0.0
2017-Oct-13 16:49N 42°22' W 071°03'0 0.0
2017-Oct-13 15:00N 42°22' W 071°03'0 0.0
2017-Oct-12 16:33N 42°22' W 071°03'0 0.0
2017-Oct-12 15:20N 42°22' W 071°03'0 0.0
2017-Oct-12 14:44N 42°22' W 071°03'0 0.0
2017-Oct-12 12:25N 42°22' W 071°03'0 0.0
2017-Oct-12 09:23N 42°22' W 071°03'0 0.0
2017-Oct-12 08:59N 42°22' W 071°03'0 0.0
2017-Oct-12 08:23N 42°22' W 071°03'0 0.0
2017-Oct-12 07:08N 42°22' W 071°03'0 0.0
2017-Oct-12 06:55N 42°22' W 071°03'0 0.0
2017-Oct-12 06:25N 42°22' W 071°03'0 0.0
2017-Oct-12 05:49N 42°22' W 071°03'0 0.0
2017-Oct-12 05:25N 42°22' W 071°03'0 0.0
2017-Oct-12 04:52N 42°22' W 071°03'0 0.0
2017-Oct-12 04:21N 42°22' W 071°03'0 0.0
2017-Oct-12 04:00N 42°22' W 071°03'0 0.1
2017-Oct-12 03:30N 42°22' W 071°03'0 0.0
2017-Oct-12 03:00N 42°22' W 071°03'0 0.0
2017-Oct-12 02:30N 42°22' W 071°03'0 0.0
2017-Oct-12 02:00N 42°22' W 071°03'0 0.0
2017-Oct-12 01:30N 42°22' W 071°03'0 0.0
2017-Oct-12 01:00N 42°22' W 071°03'0 0.0
2017-Oct-12 00:30N 42°22' W 071°03'0 0.0
2017-Oct-12 00:00N 42°22' W 071°03'0 0.0
2017-Oct-11 23:27N 42°22' W 071°03'0 0.0
2017-Oct-11 22:59N 42°22' W 071°03'0 0.0
2017-Oct-11 22:29N 42°22' W 071°03'0 0.0
2017-Oct-11 22:00N 42°22' W 071°03'0 0.0
2017-Oct-11 21:31N 42°22' W 071°03'0 0.0
2017-Oct-11 21:00N 42°22' W 071°03'0 0.0
2017-Oct-11 20:30N 42°22' W 071°03'0 0.0
2017-Oct-11 20:00N 42°22' W 071°03'0 0.0
2017-Oct-11 19:30N 42°22' W 071°03'0 0.0
2017-Oct-11 19:00N 42°22' W 071°03'0 0.0
2017-Oct-11 18:30N 42°22' W 071°03'0 0.0
2017-Oct-11 17:59N 42°22' W 071°03'0 0.0
2017-Oct-11 17:29N 42°22' W 071°03'0 0.0
2017-Oct-11 17:00N 42°22' W 071°03'0 0.0
2017-Oct-10 02:13N 42°22' W 071°03'0 0.0
2017-Oct-10 00:12N 42°22' W 071°03'0 0.0
2017-Oct-09 20:22N 42°22' W 071°03'0 0.0
2017-Oct-09 17:09N 42°22' W 071°03'0 0.0
2017-Oct-09 13:19N 42°22' W 071°03'0 0.0
2017-Oct-09 00:44N 42°22' W 071°03'0 0.0
2017-Oct-09 00:26N 42°22' W 071°03'0 0.0
2017-Oct-08 23:49N 42°22' W 071°03'0 0.0
2017-Oct-08 23:25N 42°22' W 071°03'0 0.0
2017-Oct-08 22:55N 42°22' W 071°03'0 0.0
2017-Oct-08 22:25N 42°22' W 071°03'0 0.0
2017-Oct-08 16:46N 42°22' W 071°03'0 0.0
2017-Oct-08 13:57N 42°22' W 071°03'0 0.0
2017-Oct-08 13:15N 42°22' W 071°03'0 0.0
2017-Oct-08 09:55N 42°22' W 071°03'0 0.0
2017-Oct-08 09:13N 42°22' W 071°03'0 0.0
2017-Oct-08 08:55N 42°22' W 071°03'0 0.0
2017-Oct-08 08:06N 42°22' W 071°03'0 0.0
2017-Oct-08 07:54N 42°22' W 071°03'0 0.0
2017-Oct-08 07:24N 42°22' W 071°03'0 0.0
2017-Oct-08 05:17N 42°22' W 071°03'0 0.0
2017-Oct-08 04:59N 42°22' W 071°03'0 0.0
2017-Oct-08 04:23N 42°22' W 071°03'0 0.0
2017-Oct-08 03:35N 42°22' W 071°03'0 0.0
2017-Oct-08 02:28N 42°22' W 071°03'0 0.0
2017-Oct-08 01:40N 42°22' W 071°03'0 0.0
2017-Oct-08 01:28N 42°22' W 071°03'0 0.0
2017-Oct-08 00:57N 42°22' W 071°03'0 0.0
2017-Oct-08 00:27N 42°22' W 071°03'0 0.0
2017-Oct-07 23:51N 42°22' W 071°03'0 0.0
2017-Oct-07 23:27N 42°22' W 071°03'0 0.0
2017-Oct-07 22:50N 42°22' W 071°03'0 0.0
2017-Oct-07 22:14N 42°22' W 071°03'0 0.0
2017-Oct-07 20:56N 42°22' W 071°03'0 0.0
2017-Oct-07 20:19N 42°22' W 071°03'0 0.0
2017-Oct-07 19:55N 42°22' W 071°03'0 0.0
2017-Oct-07 18:12N 42°22' W 071°03'0 0.0
2017-Oct-07 18:00N 42°22' W 071°03'0 0.0
2017-Oct-07 14:59N 42°22' W 071°03'0 0.0
2017-Oct-07 14:29N 42°22' W 071°03'0 0.0
2017-Oct-07 13:53N 42°22' W 071°03'0 0.0
2017-Oct-07 13:28N 42°22' W 071°03'0 0.0
2017-Oct-07 12:58N 42°22' W 071°03'0 0.0
2017-Oct-07 12:28N 42°22' W 071°03'0 0.0
2017-Oct-07 11:49N 42°22' W 071°03'0 0.0
2017-Oct-07 11:28N 42°22' W 071°03'0 0.0
2017-Oct-07 11:00N 42°22' W 071°03'0 0.0
2017-Oct-07 10:12N 42°22' W 071°03'0 0.0
2017-Oct-07 10:00N 42°22' W 071°03'0 0.0
2017-Oct-07 09:30N 42°22' W 071°03'0 0.0
2017-Oct-07 08:56N 42°22' W 071°03'0 0.0
2017-Oct-07 08:29N 42°22' W 071°03'0 0.0
2017-Oct-07 06:56N 42°22' W 071°03'0 0.0
2017-Oct-07 06:28N 42°22' W 071°03'0 0.0
2017-Oct-07 05:58N 42°22' W 071°03'0 0.0
2017-Oct-07 05:28N 42°22' W 071°03'0 0.0
2017-Oct-07 04:55N 42°22' W 071°03'0 0.0
2017-Oct-07 04:25N 42°22' W 071°03'0 0.0
2017-Oct-07 03:57N 42°22' W 071°03'0 0.0
2017-Oct-07 03:21N 42°22' W 071°03'0 0.0
2017-Oct-07 03:00N 42°22' W 071°03'0 0.0
2017-Oct-07 02:30N 42°22' W 071°03'0 0.0
2017-Oct-07 02:00N 42°22' W 071°03'0 0.0
2017-Oct-07 01:17N 42°22' W 071°03'0 0.0
2017-Oct-07 00:56N 42°22' W 071°03'0 0.0
2017-Oct-07 00:29N 42°22' W 071°03'0 0.0
2017-Oct-07 00:00N 42°22' W 071°03'0 0.0
2017-Oct-06 23:31N 42°22' W 071°03'0 0.0
2017-Oct-06 23:00N 42°22' W 071°03'  
Track history (hours):
 
Tides and Currents Weather Stations Pressure Air Temp Water Temp Dewpoint Dewpoint Depression Visibility Wind Speed Wind Dir Waves Ship Positions

Athena

Last reported at 2017-Oct-16 16:30 UTC. Time now 2017-Oct-19 07:06 UTC.
Position N 42°19' W 070°32'.

Length 90 m; draft 5.7 m.

Type: Ship. MMSI: 319012000.

Date/timePositionNaut miles runAvg speedWind from/ knotsBaromVisibWave heightAir tempDewpointWater temp
2017-Oct-16 16:30N 42°19' W 070°32'2 3.3
2017-Oct-16 15:58N 42°18' W 070°31'1 1.5
2017-Oct-16 15:16N 42°18' W 070°33'0 0.4
2017-Oct-16 14:15N 42°17' W 070°33'1010.5
2017-Oct-16 13:21N 42°21' W 070°44'411.3
2017-Oct-16 13:01N 42°23' W 070°49'4 7.0
2017-Oct-16 12:30N 42°22' W 070°54'4 7.5
2017-Oct-16 12:00N 42°20' W 070°58'4 8.1
2017-Oct-16 11:30N 42°22' W 071°03'1 1.0
2017-Oct-16 10:57N 42°22' W 071°03'0 0.0
2017-Oct-16 10:29N 42°22' W 071°03'0 0.0
2017-Oct-16 09:53N 42°22' W 071°03'  
2017-Oct-13 20:02N 42°22' W 071°03'0 0.0
2017-Oct-13 17:07N 42°22' W 071°03'0 0.0
2017-Oct-13 16:49N 42°22' W 071°03'0 0.0
2017-Oct-13 15:00N 42°22' W 071°03'0 0.0
2017-Oct-12 16:33N 42°22' W 071°03'0 0.0
2017-Oct-12 15:20N 42°22' W 071°03'0 0.0
2017-Oct-12 14:44N 42°22' W 071°03'0 0.0
2017-Oct-12 12:25N 42°22' W 071°03'0 0.0
2017-Oct-12 09:23N 42°22' W 071°03'0 0.0
2017-Oct-12 08:59N 42°22' W 071°03'0 0.0
2017-Oct-12 08:23N 42°22' W 071°03'0 0.0
2017-Oct-12 07:08N 42°22' W 071°03'0 0.0
2017-Oct-12 06:55N 42°22' W 071°03'0 0.0
2017-Oct-12 06:25N 42°22' W 071°03'0 0.0
2017-Oct-12 05:49N 42°22' W 071°03'0 0.0
2017-Oct-12 05:25N 42°22' W 071°03'0 0.0
2017-Oct-12 04:52N 42°22' W 071°03'0 0.0
2017-Oct-12 04:21N 42°22' W 071°03'0 0.0
2017-Oct-12 04:00N 42°22' W 071°03'0 0.1
2017-Oct-12 03:30N 42°22' W 071°03'0 0.0
2017-Oct-12 03:00N 42°22' W 071°03'0 0.0
2017-Oct-12 02:30N 42°22' W 071°03'0 0.0
2017-Oct-12 02:00N 42°22' W 071°03'0 0.0
2017-Oct-12 01:30N 42°22' W 071°03'0 0.0
2017-Oct-12 01:00N 42°22' W 071°03'0 0.0
2017-Oct-12 00:30N 42°22' W 071°03'0 0.0
2017-Oct-12 00:00N 42°22' W 071°03'0 0.0
2017-Oct-11 23:27N 42°22' W 071°03'0 0.0
2017-Oct-11 22:59N 42°22' W 071°03'0 0.0
2017-Oct-11 22:29N 42°22' W 071°03'0 0.0
2017-Oct-11 22:00N 42°22' W 071°03'0 0.0
2017-Oct-11 21:31N 42°22' W 071°03'0 0.0
2017-Oct-11 21:00N 42°22' W 071°03'0 0.0
2017-Oct-11 20:30N 42°22' W 071°03'0 0.0
2017-Oct-11 20:00N 42°22' W 071°03'0 0.0
2017-Oct-11 19:30N 42°22' W 071°03'0 0.0
2017-Oct-11 19:00N 42°22' W 071°03'0 0.0
2017-Oct-11 18:30N 42°22' W 071°03'0 0.0
2017-Oct-11 17:59N 42°22' W 071°03'0 0.0
2017-Oct-11 17:29N 42°22' W 071°03'0 0.0
2017-Oct-11 17:00N 42°22' W 071°03'0 0.0
2017-Oct-10 02:13N 42°22' W 071°03'0 0.0
2017-Oct-10 00:12N 42°22' W 071°03'0 0.0
2017-Oct-09 20:22N 42°22' W 071°03'0 0.0
2017-Oct-09 17:09N 42°22' W 071°03'0 0.0
2017-Oct-09 13:19N 42°22' W 071°03'0 0.0
2017-Oct-09 00:44N 42°22' W 071°03'0 0.0
2017-Oct-09 00:26N 42°22' W 071°03'0 0.0
2017-Oct-08 23:49N 42°22' W 071°03'0 0.0
2017-Oct-08 23:25N 42°22' W 071°03'0 0.0
2017-Oct-08 22:55N 42°22' W 071°03'0 0.0
2017-Oct-08 22:25N 42°22' W 071°03'0 0.0
2017-Oct-08 16:46N 42°22' W 071°03'0 0.0
2017-Oct-08 13:57N 42°22' W 071°03'0 0.0
2017-Oct-08 13:15N 42°22' W 071°03'0 0.0
2017-Oct-08 09:55N 42°22' W 071°03'0 0.0
2017-Oct-08 09:13N 42°22' W 071°03'0 0.0
2017-Oct-08 08:55N 42°22' W 071°03'0 0.0
2017-Oct-08 08:06N 42°22' W 071°03'0 0.0
2017-Oct-08 07:54N 42°22' W 071°03'0 0.0
2017-Oct-08 07:24N 42°22' W 071°03'0 0.0
2017-Oct-08 05:17N 42°22' W 071°03'0 0.0
2017-Oct-08 04:59N 42°22' W 071°03'0 0.0
2017-Oct-08 04:23N 42°22' W 071°03'0 0.0
2017-Oct-08 03:35N 42°22' W 071°03'0 0.0
2017-Oct-08 02:28N 42°22' W 071°03'0 0.0
2017-Oct-08 01:40N 42°22' W 071°03'0 0.0
2017-Oct-08 01:28N 42°22' W 071°03'0 0.0
2017-Oct-08 00:57N 42°22' W 071°03'0 0.0
2017-Oct-08 00:27N 42°22' W 071°03'0 0.0
2017-Oct-07 23:51N 42°22' W 071°03'0 0.0
2017-Oct-07 23:27N 42°22' W 071°03'0 0.0
2017-Oct-07 22:50N 42°22' W 071°03'0 0.0
2017-Oct-07 22:14N 42°22' W 071°03'0 0.0
2017-Oct-07 20:56N 42°22' W 071°03'0 0.0
2017-Oct-07 20:19N 42°22' W 071°03'0 0.0
2017-Oct-07 19:55N 42°22' W 071°03'0 0.0
2017-Oct-07 18:12N 42°22' W 071°03'0 0.0
2017-Oct-07 18:00N 42°22' W 071°03'0 0.0
2017-Oct-07 14:59N 42°22' W 071°03'0 0.0
2017-Oct-07 14:29N 42°22' W 071°03'0 0.0
2017-Oct-07 13:53N 42°22' W 071°03'0 0.0
2017-Oct-07 13:28N 42°22' W 071°03'0 0.0
2017-Oct-07 12:58N 42°22' W 071°03'0 0.0
2017-Oct-07 12:28N 42°22' W 071°03'0 0.0
2017-Oct-07 11:49N 42°22' W 071°03'0 0.0
2017-Oct-07 11:28N 42°22' W 071°03'0 0.0
2017-Oct-07 11:00N 42°22' W 071°03'0 0.0
2017-Oct-07 10:12N 42°22' W 071°03'0 0.0
2017-Oct-07 10:00N 42°22' W 071°03'0 0.0
2017-Oct-07 09:30N 42°22' W 071°03'0 0.0
2017-Oct-07 08:56N 42°22' W 071°03'0 0.0
2017-Oct-07 08:29N 42°22' W 071°03'0 0.0
2017-Oct-07 06:56N 42°22' W 071°03'0 0.0
2017-Oct-07 06:28N 42°22' W 071°03'0 0.0
2017-Oct-07 05:58N 42°22' W 071°03'0 0.0
2017-Oct-07 05:28N 42°22' W 071°03'0 0.0
2017-Oct-07 04:55N 42°22' W 071°03'0 0.0
2017-Oct-07 04:25N 42°22' W 071°03'0 0.0
2017-Oct-07 03:57N 42°22' W 071°03'0 0.0
2017-Oct-07 03:21N 42°22' W 071°03'0 0.0
2017-Oct-07 03:00N 42°22' W 071°03'0 0.0
2017-Oct-07 02:30N 42°22' W 071°03'0 0.0
2017-Oct-07 02:00N 42°22' W 071°03'0 0.0
2017-Oct-07 01:17N 42°22' W 071°03'0 0.0
2017-Oct-07 00:56N 42°22' W 071°03'0 0.0
2017-Oct-07 00:29N 42°22' W 071°03'0 0.0
2017-Oct-07 00:00N 42°22' W 071°03'0 0.0
2017-Oct-06 23:31N 42°22' W 071°03'0 0.0
2017-Oct-06 23:00N 42°22' W 071°03'  

Dump ship's entire track history